Time;durP1;ratioP1;P1;durP2;ratioP2;P2;SDS_P1;SDS_P2;PMS_P1;PMS_P2;Temp;Humidity;BMP_temperature;BMP_pressure;BME280_temperature;BME280_humidity;BME280_pressure;Samples;Min_cycle;Max_cycle;Signal;HPM_P1;HPM_P2
2023/04/25 00:01:02;;;;;;;4.63;2.28;;;20.40;66.30;;;;;;4863179;28;85730;-91
2023/04/25 00:03:46;;;;;;;3.00;2.20;;;20.30;66.10;;;;;;4862271;28;86108;-89
2023/04/25 00:06:12;;;;;;;2.58;2.13;;;20.40;66.40;;;;;;4885256;28;90110;-90
2023/04/25 00:08:37;;;;;;;3.90;2.42;;;20.40;66.40;;;;;;4896024;28;88829;-91
2023/04/25 00:11:03;;;;;;;4.07;2.38;;;20.40;66.30;;;;;;4903685;28;85878;-92
2023/04/25 00:13:29;;;;;;;2.85;2.00;;;20.40;66.30;;;;;;4903838;28;85753;-91
2023/04/25 00:15:56;;;;;;;3.10;1.90;;;20.30;66.20;;;;;;4905401;28;89198;-90
2023/04/25 00:18:22;;;;;;;2.90;2.10;;;20.30;66.20;;;;;;4903769;28;88599;-92
2023/04/25 00:20:48;;;;;;;3.25;2.40;;;20.30;66.30;;;;;;4887557;28;86125;-92
2023/04/25 00:23:18;;;;;;;2.20;1.98;;;20.30;66.20;;;;;;4903957;28;85968;-91
2023/04/25 00:25:44;;;;;;;4.82;2.45;;;20.30;66.30;;;;;;4894209;28;89212;-92
2023/04/25 00:28:11;;;;;;;2.90;2.00;;;20.30;66.10;;;;;;4879368;28;89926;-93
2023/04/25 00:30:37;;;;;;;3.13;2.15;;;20.30;66.20;;;;;;4878327;28;86500;-91
2023/04/25 00:33:03;;;;;;;3.45;2.03;;;20.30;66.10;;;;;;4880225;28;86014;-92
2023/04/25 00:35:29;;;;;;;4.10;2.30;;;20.30;66.30;;;;;;4880159;28;91111;-92
2023/04/25 00:37:54;;;;;;;3.40;2.30;;;20.20;66.10;;;;;;4880124;28;88331;-92
2023/04/25 00:40:21;;;;;;;3.28;2.03;;;20.20;66.10;;;;;;4879357;28;85903;-91
2023/04/25 00:42:47;;;;;;;3.25;1.92;;;20.30;66.20;;;;;;4879644;28;85743;-90
2023/04/25 00:45:15;;;;;;;2.85;2.40;;;20.20;66.30;;;;;;4880396;28;89262;-92
2023/04/25 00:47:41;;;;;;;2.72;2.08;;;20.20;66.20;;;;;;4878530;28;89382;-93
2023/04/25 00:50:08;;;;;;;4.00;2.35;;;20.20;66.10;;;;;;4880767;28;85721;-91
2023/04/25 00:52:49;;;;;;;2.65;1.88;;;20.20;66.20;;;;;;4879753;28;86594;-93
2023/04/25 00:55:15;;;;;;;3.10;2.35;;;20.20;66.20;;;;;;4881012;28;90539;-91
2023/04/25 00:57:42;;;;;;;3.22;2.33;;;20.20;66.00;;;;;;4887820;28;89213;-91
2023/04/25 01:00:14;;;;;;;2.28;1.95;;;20.20;66.30;;;;;;4919047;28;86194;-93
2023/04/25 01:02:41;;;;;;;2.80;1.90;;;20.20;66.20;;;;;;4934824;28;85788;-92
2023/04/25 01:05:08;;;;;;;2.47;2.08;;;20.20;66.20;;;;;;4935854;28;90463;-90
2023/04/25 01:07:34;;;;;;;3.58;1.98;;;20.10;66.00;;;;;;4935009;28;89579;-91
2023/04/25 01:10:01;;;;;;;2.47;2.05;;;20.10;66.10;;;;;;4935853;28;85503;-91
2023/04/25 01:12:26;;;;;;;3.30;2.42;;;20.10;66.20;;;;;;4905434;28;85924;-91
2023/04/25 01:14:52;;;;;;;2.85;2.28;;;20.10;66.10;;;;;;4889602;28;89333;-91
2023/04/25 01:17:19;;;;;;;2.63;2.13;;;20.10;66.10;;;;;;4888213;28;88755;-93
2023/04/25 01:19:48;;;;;;;3.60;2.28;;;20.10;66.20;;;;;;4889653;28;86550;-94
2023/04/25 01:22:15;;;;;;;3.80;2.20;;;20.10;66.30;;;;;;4889691;28;86611;-91
2023/04/25 01:24:41;;;;;;;3.35;2.30;;;20.10;66.20;;;;;;4889007;28;89191;-92
2023/04/25 01:27:07;;;;;;;2.95;2.08;;;20.10;66.20;;;;;;4888680;28;88504;-93
2023/04/25 01:29:35;;;;;;;4.80;2.33;;;20.10;66.40;;;;;;4886230;28;87477;-91
2023/04/25 01:32:01;;;;;;;3.20;2.40;;;20.10;66.30;;;;;;4888395;28;85824;-91
2023/04/25 01:34:27;;;;;;;2.03;1.73;;;20.00;66.30;;;;;;4887229;28;89341;-91
2023/04/25 01:36:53;;;;;;;4.65;2.10;;;20.10;66.30;;;;;;4888317;28;88483;-91
2023/04/25 01:39:20;;;;;;;2.67;1.85;;;20.10;66.30;;;;;;4890128;28;85765;-91
2023/04/25 01:41:47;;;;;;;3.75;2.08;;;20.10;67.00;;;;;;4866043;28;86727;-92
2023/04/25 01:44:13;;;;;;;5.43;2.20;;;20.10;66.30;;;;;;4866259;28;90173;-92
2023/04/25 01:46:39;;;;;;;2.97;1.98;;;20.10;66.20;;;;;;4850674;28;89366;-93
2023/04/25 01:49:05;;;;;;;3.25;2.03;;;20.10;66.30;;;;;;4865831;29;85780;-92
2023/04/25 01:51:31;;;;;;;2.90;2.47;;;20.10;66.20;;;;;;4858797;29;85922;-92
2023/04/25 01:54:00;;;;;;;2.45;1.95;;;20.00;66.10;;;;;;4858193;29;89305;-91
2023/04/25 01:56:30;;;;;;;2.58;2.00;;;20.00;66.20;;;;;;4848912;29;88697;-92
2023/04/25 01:58:57;;;;;;;2.45;1.88;;;20.00;66.20;;;;;;4855389;29;86458;-90
2023/04/25 02:01:22;;;;;;;3.00;1.75;;;20.00;66.30;;;;;;4866446;28;86053;-92
2023/04/25 02:03:48;;;;;;;3.00;2.05;;;20.00;66.40;;;;;;4856398;28;90562;-91
2023/04/25 02:06:13;;;;;;;2.63;1.92;;;20.00;66.20;;;;;;4856194;28;88656;-91
2023/04/25 02:08:39;;;;;;;2.20;1.88;;;20.00;66.50;;;;;;4856334;29;85808;-92
2023/04/25 02:11:05;;;;;;;2.33;1.60;;;20.00;66.20;;;;;;4858274;29;85872;-92
2023/04/25 02:13:31;;;;;;;2.10;1.80;;;20.00;66.30;;;;;;4901628;28;89111;-92
2023/04/25 02:15:57;;;;;;;2.80;1.88;;;20.00;66.40;;;;;;4934701;28;87533;-92
2023/04/25 02:18:22;;;;;;;2.38;1.70;;;20.00;66.20;;;;;;4933503;28;85938;-92
2023/04/25 02:20:48;;;;;;;2.22;1.80;;;20.00;66.50;;;;;;4932883;28;86247;-92
2023/04/25 02:23:15;;;;;;;2.92;2.08;;;19.90;66.10;;;;;;4918022;28;88975;-92
2023/04/25 02:25:41;;;;;;;2.85;1.85;;;19.90;66.20;;;;;;4927140;28;88630;-92
2023/04/25 02:28:07;;;;;;;2.85;2.10;;;19.90;66.10;;;;;;4927551;28;86119;-91
2023/04/25 02:30:32;;;;;;;2.92;2.20;;;19.90;66.20;;;;;;4934202;28;86337;-94
2023/04/25 02:32:59;;;;;;;2.70;1.95;;;20.00;66.30;;;;;;4918040;28;89741;-91
2023/04/25 02:35:24;;;;;;;3.65;2.20;;;19.90;65.90;;;;;;4934026;28;88995;-92
2023/04/25 02:37:50;;;;;;;2.15;1.60;;;19.90;66.00;;;;;;4934013;28;85934;-91
2023/04/25 02:40:16;;;;;;;1.95;1.73;;;19.90;66.00;;;;;;4918108;28;86445;-92
2023/04/25 02:42:41;;;;;;;3.20;1.60;;;19.90;65.90;;;;;;4934772;28;89447;-92
2023/04/25 02:45:08;;;;;;;3.03;2.03;;;19.90;65.90;;;;;;4932042;28;87518;-91
2023/04/25 02:47:34;;;;;;;3.25;2.28;;;19.90;66.00;;;;;;4916536;28;86686;-91
2023/04/25 02:49:59;;;;;;;4.32;2.08;;;19.90;66.10;;;;;;4916565;28;85657;-93
2023/04/25 02:52:25;;;;;;;2.85;2.03;;;19.90;66.00;;;;;;4919733;28;89901;-92
2023/04/25 02:54:51;;;;;;;3.10;2.40;;;19.90;66.10;;;;;;4931926;28;92741;-91
2023/04/25 02:57:16;;;;;;;2.00;1.80;;;19.80;65.90;;;;;;4932448;28;86292;-91
2023/04/25 02:59:42;;;;;;;3.13;2.10;;;19.80;65.80;;;;;;4898208;28;85608;-92
2023/04/25 03:02:08;;;;;;;2.65;1.85;;;19.80;65.80;;;;;;4910693;28;89461;-92
2023/04/25 03:04:33;;;;;;;2.75;2.20;;;19.80;66.00;;;;;;4891185;28;87491;-90
2023/04/25 03:06:59;;;;;;;3.03;1.65;;;19.80;65.90;;;;;;4894561;28;87136;-91
2023/04/25 03:09:25;;;;;;;3.72;2.20;;;19.80;65.90;;;;;;4879225;28;89518;-91
2023/04/25 03:11:51;;;;;;;5.00;2.30;;;19.80;65.90;;;;;;4892714;28;89036;-91
2023/04/25 03:14:16;;;;;;;1.60;1.50;;;19.80;66.10;;;;;;4892820;28;88269;-92
2023/04/25 03:16:42;;;;;;;2.17;1.88;;;19.80;65.80;;;;;;4893801;28;86081;-92
2023/04/25 03:19:08;;;;;;;2.08;1.70;;;19.80;65.80;;;;;;4892659;28;86248;-91
2023/04/25 03:21:35;;;;;;;2.58;2.17;;;19.80;65.70;;;;;;4892128;28;88708;-93
2023/04/25 03:24:16;;;;;;;4.10;2.03;;;19.80;65.90;;;;;;4877163;28;89757;-92
2023/04/25 03:26:41;;;;;;;2.20;1.90;;;19.80;65.70;;;;;;4893891;28;85682;-91
2023/04/25 03:29:07;;;;;;;3.03;2.13;;;19.70;65.80;;;;;;4877485;28;86813;-92
2023/04/25 03:31:33;;;;;;;2.72;1.92;;;19.80;65.90;;;;;;4879212;28;88317;-91
2023/04/25 03:33:59;;;;;;;2.65;1.85;;;19.70;65.60;;;;;;4895289;28;89508;-92
2023/04/25 03:36:24;;;;;;;2.70;1.75;;;19.80;65.70;;;;;;4898113;28;85811;-92
2023/04/25 03:38:50;;;;;;;2.72;1.98;;;19.80;65.70;;;;;;4910455;28;87834;-92
2023/04/25 03:41:16;;;;;;;2.90;2.10;;;19.70;65.70;;;;;;4895693;28;90410;-90
2023/04/25 03:43:41;;;;;;;2.20;2.00;;;19.70;65.70;;;;;;4902655;28;88370;-92
2023/04/25 03:46:07;;;;;;;2.88;1.90;;;19.70;65.40;;;;;;4895867;28;86394;-92
2023/04/25 03:48:33;;;;;;;2.22;1.77;;;19.80;65.60;;;;;;4894246;28;86326;-90
2023/04/25 03:50:58;;;;;;;1.70;1.60;;;19.70;65.60;;;;;;4895574;28;90455;-93
2023/04/25 03:53:25;;;;;;;2.15;1.67;;;19.70;65.70;;;;;;4907833;28;88538;-92
2023/04/25 03:55:51;;;;;;;2.65;1.80;;;19.70;65.60;;;;;;4894734;28;86077;-92
2023/04/25 03:58:17;;;;;;;2.17;1.77;;;19.70;65.50;;;;;;4903857;28;86082;-93
2023/04/25 04:00:42;;;;;;;3.63;2.10;;;19.70;65.40;;;;;;4932742;28;89205;-91
2023/04/25 04:03:08;;;;;;;2.67;1.83;;;19.70;65.60;;;;;;4932842;28;88338;-93
2023/04/25 04:05:34;;;;;;;2.08;1.85;;;19.70;65.60;;;;;;4932472;28;85835;-91
2023/04/25 04:08:00;;;;;;;2.65;1.98;;;19.70;65.70;;;;;;4933637;28;86202;-91
2023/04/25 04:10:26;;;;;;;3.08;1.67;;;19.70;65.70;;;;;;4925167;28;89310;-92
2023/04/25 04:12:51;;;;;;;2.15;1.50;;;19.70;65.70;;;;;;4908886;28;94022;-91
2023/04/25 04:15:17;;;;;;;3.45;2.15;;;19.70;65.60;;;;;;4934265;28;85717;-92
2023/04/25 04:17:43;;;;;;;3.00;2.30;;;19.70;65.70;;;;;;4931426;28;86238;-93
2023/04/25 04:20:09;;;;;;;1.85;1.70;;;19.70;65.70;;;;;;4914181;28;89435;-93
2023/04/25 04:22:35;;;;;;;2.25;1.88;;;19.70;65.60;;;;;;4907358;28;89582;-91
2023/04/25 04:25:01;;;;;;;2.22;1.60;;;19.60;65.70;;;;;;4915521;28;85715;-92
2023/04/25 04:27:27;;;;;;;2.10;1.88;;;19.70;65.70;;;;;;4900012;28;85925;-92
2023/04/25 04:33:15;;;;;;;3.00;1.73;;;19.60;65.70;;;;;;4915469;28;86159;-92
2023/04/25 04:35:41;;;;;;;2.00;1.75;;;19.60;65.90;;;;;;4906436;28;87439;-92
2023/04/25 04:38:07;;;;;;;2.63;1.67;;;19.70;65.90;;;;;;4898054;28;86438;-91
2023/04/25 04:40:33;;;;;;;2.65;1.90;;;19.60;65.60;;;;;;4914126;28;90270;-91
2023/04/25 04:42:58;;;;;;;1.90;1.52;;;19.60;65.70;;;;;;4901482;28;89467;-91
2023/04/25 04:45:24;;;;;;;2.55;1.92;;;19.60;65.70;;;;;;4914096;28;87237;-92
2023/04/25 04:47:55;;;;;;;1.88;1.60;;;19.60;65.70;;;;;;4913919;28;85847;-93
2023/04/25 04:50:21;;;;;;;2.20;1.75;;;19.60;65.80;;;;;;4898924;28;88917;-92
2023/04/25 04:52:47;;;;;;;1.85;1.63;;;19.60;65.90;;;;;;4933001;28;88597;-92
2023/04/25 04:55:12;;;;;;;2.60;1.77;;;19.60;65.70;;;;;;4918358;28;86174;-92
2023/04/25 04:57:39;;;;;;;2.42;1.90;;;19.60;65.70;;;;;;4914298;28;86017;-93
2023/04/25 05:00:10;;;;;;;2.05;1.85;;;19.60;65.80;;;;;;4934207;28;89253;-92
2023/04/25 05:02:37;;;;;;;2.30;1.73;;;19.60;65.60;;;;;;4933914;28;89896;-91
2023/04/25 05:05:03;;;;;;;2.25;1.83;;;19.60;65.60;;;;;;4918619;28;85902;-92
2023/04/25 05:07:28;;;;;;;2.42;1.90;;;19.60;65.60;;;;;;4934496;28;85942;-91
2023/04/25 05:09:54;;;;;;;1.95;1.75;;;19.60;65.60;;;;;;4935477;28;89357;-91
2023/04/25 05:15:48;;;;;;;2.63;1.83;;;19.60;65.50;;;;;;4937336;28;85852;-91
2023/04/25 05:18:14;;;;;;;2.40;1.88;;;19.50;65.50;;;;;;4933704;28;85783;-93
2023/04/25 05:20:40;;;;;;;2.13;1.83;;;19.60;65.50;;;;;;4917939;28;89400;-90
2023/04/25 05:23:06;;;;;;;2.08;1.67;;;19.50;65.50;;;;;;4895968;28;88664;-90
2023/04/25 05:25:31;;;;;;;2.17;1.70;;;19.50;65.50;;;;;;4895361;28;85624;-91
2023/04/25 05:27:58;;;;;;;1.98;1.80;;;19.60;65.60;;;;;;4898641;28;86022;-92
2023/04/25 05:30:23;;;;;;;2.22;1.90;;;19.50;65.60;;;;;;4895293;28;90638;-93
2023/04/25 05:32:50;;;;;;;1.98;1.70;;;19.50;65.50;;;;;;4894679;28;87993;-92
2023/04/25 05:35:16;;;;;;;3.45;1.95;;;19.50;65.40;;;;;;4895461;28;86222;-91
2023/04/25 05:37:42;;;;;;;2.28;1.63;;;19.60;65.50;;;;;;4894221;28;86109;-90
2023/04/25 05:40:08;;;;;;;2.67;1.85;;;19.50;65.50;;;;;;4896553;28;90452;-90
2023/04/25 05:42:34;;;;;;;2.45;1.80;;;19.50;65.50;;;;;;4894834;28;89513;-92
2023/04/25 05:45:00;;;;;;;2.38;1.98;;;19.50;65.60;;;;;;4895662;28;86382;-93
2023/04/25 05:47:26;;;;;;;2.45;1.85;;;19.50;65.50;;;;;;4894931;28;86457;-92
2023/04/25 05:49:52;;;;;;;2.53;1.73;;;19.50;65.50;;;;;;4894153;28;89249;-92
2023/04/25 05:52:18;;;;;;;3.38;1.65;;;19.50;65.30;;;;;;4896107;28;89806;-91
2023/04/25 05:54:44;;;;;;;2.92;1.77;;;19.50;65.30;;;;;;4894907;28;86096;-90
2023/04/25 05:57:27;;;;;;;1.92;1.60;;;19.50;65.30;;;;;;4895822;28;86102;-94
2023/04/25 05:59:55;;;;;;;3.05;1.63;;;19.50;65.30;;;;;;4883451;28;89194;-90
2023/04/25 06:02:23;;;;;;;3.03;1.83;;;19.60;65.30;;;;;;4898281;28;89763;-93
2023/04/25 06:04:57;;;;;;;3.28;1.85;;;19.60;65.20;;;;;;4899035;28;85956;-91
2023/04/25 06:07:23;;;;;;;2.30;1.85;;;19.60;65.30;;;;;;4915137;28;86151;-93
2023/04/25 06:09:54;;;;;;;2.28;1.52;;;19.70;65.00;;;;;;4897748;28;89228;-91
2023/04/25 06:12:20;;;;;;;4.75;1.63;;;19.70;64.90;;;;;;4891916;28;88745;-93
2023/04/25 06:14:45;;;;;;;2.45;1.77;;;19.80;64.70;;;;;;4898025;28;85615;-91
2023/04/25 06:17:11;;;;;;;2.97;1.63;;;20.00;64.90;;;;;;4886347;28;86189;-91
2023/04/25 06:19:40;;;;;;;1.80;1.70;;;20.10;64.80;;;;;;4882205;28;89316;-90
2023/04/25 06:22:07;;;;;;;2.45;1.70;;;20.30;64.70;;;;;;4899425;28;88874;-93
2023/04/25 06:24:36;;;;;;;2.45;1.90;;;20.40;63.90;;;;;;4895673;28;86489;-95
2023/04/25 06:27:02;;;;;;;2.85;1.42;;;20.50;64.30;;;;;;4855280;29;90102;-93
2023/04/25 06:29:28;;;;;;;3.17;1.65;;;20.50;64.30;;;;;;4855146;28;88849;-93
2023/04/25 06:31:54;;;;;;;2.60;1.60;;;20.50;64.30;;;;;;4871835;28;89476;-94
2023/04/25 06:34:22;;;;;;;5.47;1.58;;;20.50;64.20;;;;;;4868739;28;85754;-92
2023/04/25 06:36:48;;;;;;;4.90;1.43;;;20.50;64.30;;;;;;4867225;28;85703;-91
2023/04/25 06:39:14;;;;;;;2.05;1.60;;;20.50;64.50;;;;;;4875675;28;90067;-92
2023/04/25 06:41:55;;;;;;;2.75;1.88;;;20.50;64.70;;;;;;4874061;28;88578;-93
2023/04/25 06:44:22;;;;;;;1.98;1.52;;;20.40;64.60;;;;;;4856725;28;85947;-91
2023/04/25 06:46:48;;;;;;;4.65;2.05;;;20.30;64.70;;;;;;4855076;29;85984;-92
2023/04/25 06:49:14;;;;;;;2.72;1.50;;;20.40;65.10;;;;;;4856255;29;88912;-92
2023/04/25 06:51:41;;;;;;;3.20;1.95;;;20.30;64.90;;;;;;4855818;29;87125;-91
2023/04/25 06:54:06;;;;;;;2.70;2.03;;;20.30;64.90;;;;;;4856654;29;86541;-93
2023/04/25 06:56:32;;;;;;;2.28;1.48;;;20.20;64.80;;;;;;4856921;29;85762;-90
2023/04/25 06:59:03;;;;;;;1.95;1.58;;;20.30;64.80;;;;;;4875189;28;89536;-93
2023/04/25 07:01:29;;;;;;;3.25;1.70;;;20.30;64.90;;;;;;4871472;28;89756;-91
2023/04/25 07:04:10;;;;;;;1.83;1.60;;;20.40;64.80;;;;;;4873828;28;86180;-93
2023/04/25 07:06:48;;;;;;;5.07;2.10;;;20.20;64.90;;;;;;4851535;29;85819;-94
2023/04/25 07:09:21;;;;;;;1.63;1.52;;;20.20;65.20;;;;;;4862420;29;89407;-93
2023/04/25 07:11:47;;;;;;;3.60;2.05;;;20.10;65.10;;;;;;4843538;29;88636;-92
2023/04/25 07:14:12;;;;;;;15.90;4.15;;;20.20;65.30;;;;;;4859159;28;86028;-93
2023/04/25 07:16:38;;;;;;;23.08;4.78;;;20.20;64.30;;;;;;4880634;28;86540;-96
2023/04/25 07:19:04;;;;;;;17.13;3.92;;;20.20;64.00;;;;;;4878864;28;90267;-94
2023/04/25 07:21:31;;;;;;;24.55;5.80;;;20.30;63.60;;;;;;4877690;28;88876;-94
2023/04/25 07:23:57;;;;;;;12.98;3.67;;;20.20;59.70;;;;;;4879223;28;86096;-94
2023/04/25 07:26:22;;;;;;;12.50;4.28;;;20.10;62.50;;;;;;4878334;28;86019;-94
2023/04/25 07:28:50;;;;;;;14.80;3.70;;;20.10;63.40;;;;;;4877560;28;89070;-92
2023/04/25 07:31:18;;;;;;;15.88;4.40;;;20.10;63.60;;;;;;4898005;28;88794;-93
2023/04/25 07:33:45;;;;;;;14.85;4.55;;;20.10;63.60;;;;;;4915385;28;86150;-93
2023/04/25 07:36:15;;;;;;;10.57;3.85;;;20.00;63.70;;;;;;4917079;28;85795;-94
2023/04/25 07:38:40;;;;;;;;;;;20.00;63.80;;;;;;4918151;28;88776;-93
2023/04/25 07:41:06;;;;;;;12.93;4.30;;;20.00;63.90;;;;;;4919545;28;87363;-94
2023/04/25 07:43:32;;;;;;;10.75;4.07;;;20.00;64.00;;;;;;4916972;28;85464;-94
2023/04/25 07:45:58;;;;;;;12.40;3.78;;;20.00;64.20;;;;;;4934006;28;85879;-94
2023/04/25 07:48:26;;;;;;;10.45;3.97;;;20.00;64.10;;;;;;4919270;28;89669;-95
2023/04/25 07:50:51;;;;;;;13.90;4.25;;;20.00;64.10;;;;;;4932481;28;89484;-95
2023/04/25 07:53:18;;;;;;;11.63;3.95;;;20.00;64.30;;;;;;4916909;28;85731;-94
2023/04/25 07:55:43;;;;;;;12.80;4.03;;;19.90;64.00;;;;;;4931778;28;86538;-93
2023/04/25 07:58:11;;;;;;;10.05;4.32;;;19.90;64.10;;;;;;4914917;28;88768;-92
2023/04/25 08:00:37;;;;;;;12.52;4.03;;;19.90;64.00;;;;;;4923079;28;87409;-92
2023/04/25 08:03:03;;;;;;;9.73;3.90;;;19.90;64.00;;;;;;4923373;28;85661;-94
2023/04/25 08:05:29;;;;;;;11.43;4.25;;;19.90;64.00;;;;;;4922077;28;86379;-92
2023/04/25 08:07:56;;;;;;;13.73;4.10;;;19.90;64.10;;;;;;4923144;28;89490;-93
2023/04/25 08:10:22;;;;;;;13.32;4.00;;;19.90;64.20;;;;;;4905879;28;87650;-93
2023/04/25 08:12:49;;;;;;;13.40;3.85;;;19.90;64.30;;;;;;4921682;28;86265;-92
2023/04/25 08:15:27;;;;;;;11.88;4.38;;;19.80;64.20;;;;;;4922932;28;86279;-94
2023/04/25 08:17:52;;;;;;;10.57;4.22;;;19.80;64.20;;;;;;4923085;28;89369;-92
2023/04/25 08:20:18;;;;;;;11.07;4.15;;;19.80;64.00;;;;;;4921033;28;88787;-92
2023/04/25 08:22:48;;;;;;;10.88;3.90;;;19.80;64.20;;;;;;4922960;28;86313;-95
2023/04/25 08:25:14;;;;;;;10.90;4.78;;;19.80;64.20;;;;;;4905413;28;86203;-93
2023/04/25 08:27:40;;;;;;;9.88;4.40;;;19.80;64.20;;;;;;4918830;28;89995;-92
2023/04/25 08:30:08;;;;;;;10.82;4.38;;;19.80;64.00;;;;;;4911415;28;88524;-91
2023/04/25 08:32:34;;;;;;;9.30;4.03;;;19.80;64.00;;;;;;4901525;28;85984;-93
2023/04/25 08:35:00;;;;;;;7.82;3.45;;;19.80;64.10;;;;;;4920233;28;86392;-93
2023/04/25 08:37:25;;;;;;;10.55;4.05;;;19.80;64.00;;;;;;4919847;28;90195;-93
2023/04/25 08:39:53;;;;;;;10.40;3.90;;;19.90;63.80;;;;;;4922275;28;88441;-94
2023/04/25 08:42:21;;;;;;;13.40;4.15;;;19.90;63.60;;;;;;4921365;28;86111;-93
2023/04/25 08:44:50;;;;;;;13.70;4.05;;;19.90;63.60;;;;;;4921465;28;93386;-92
2023/04/25 08:47:19;;;;;;;7.28;3.72;;;19.90;63.50;;;;;;4905192;28;89170;-94
2023/04/25 08:49:46;;;;;;;12.60;4.22;;;19.90;63.60;;;;;;4922137;28;88566;-94
2023/04/25 08:52:19;;;;;;;11.40;4.10;;;19.90;63.70;;;;;;4913888;28;87341;-93
2023/04/25 08:54:48;;;;;;;11.75;4.18;;;19.90;63.80;;;;;;4920736;28;85749;-93
2023/04/25 08:57:15;;;;;;;7.85;3.47;;;19.90;63.80;;;;;;4920498;28;90517;-92
2023/04/25 08:59:45;;;;;;;11.50;3.97;;;19.90;63.70;;;;;;4909605;28;90124;-92
2023/04/25 09:02:14;;;;;;;9.65;3.85;;;19.90;63.60;;;;;;4895961;28;86587;-94
2023/04/25 09:04:41;;;;;;;10.07;4.25;;;19.90;63.60;;;;;;4896159;28;86288;-93
2023/04/25 09:07:07;;;;;;;9.88;4.20;;;19.90;63.50;;;;;;4912989;28;89962;-93
2023/04/25 09:09:32;;;;;;;11.77;4.53;;;19.90;63.60;;;;;;4903746;28;88435;-92
2023/04/25 09:11:59;;;;;;;13.18;4.22;;;19.90;63.50;;;;;;4897299;28;86245;-91
2023/04/25 09:14:25;;;;;;;9.48;4.03;;;19.90;62.80;;;;;;4911392;28;85633;-90
2023/04/25 09:16:59;;;;;;;11.10;4.30;;;20.00;62.90;;;;;;4896249;28;90402;-92
2023/04/25 09:19:36;;;;;;;9.07;4.32;;;20.00;61.40;;;;;;4914253;28;86381;-92
2023/04/25 09:22:05;;;;;;;11.02;4.28;;;19.90;62.40;;;;;;4898098;28;89241;-88
2023/04/25 09:24:36;;;;;;;8.57;3.38;;;19.90;62.40;;;;;;4912659;28;85985;-90
2023/04/25 09:27:17;;;;;;;13.57;4.22;;;20.00;62.40;;;;;;4899148;28;90576;-92
2023/04/25 09:29:43;;;;;;;10.05;3.70;;;20.10;62.40;;;;;;4896737;28;89566;-89
2023/04/25 09:32:16;;;;;;;7.68;3.30;;;20.10;62.40;;;;;;4898076;28;85848;-91
2023/04/25 09:34:50;;;;;;;11.55;3.80;;;20.10;59.30;;;;;;4898106;28;86692;-89
2023/04/25 09:37:27;;;;;;;9.68;3.80;;;20.10;59.20;;;;;;4900071;28;90327;-89
2023/04/25 09:40:07;;;;;;;12.00;4.05;;;20.10;60.00;;;;;;4822810;29;92166;-88
2023/04/25 09:42:34;;;;;;;7.25;3.65;;;20.20;61.30;;;;;;4841220;29;86251;-90
2023/04/25 09:45:02;;;;;;;12.07;4.15;;;20.20;61.00;;;;;;4831944;29;85844;-90
2023/04/25 09:47:28;;;;;;;11.18;3.75;;;20.20;60.90;;;;;;4847562;29;88541;-91
2023/04/25 09:49:55;;;;;;;11.40;3.58;;;20.20;60.80;;;;;;4831755;29;88261;-92
2023/04/25 09:52:25;;;;;;;9.90;3.42;;;20.30;61.10;;;;;;4810529;29;86202;-89
2023/04/25 09:54:51;;;;;;;13.68;4.13;;;20.40;60.90;;;;;;4809706;29;86145;-90
2023/04/25 09:57:18;;;;;;;12.65;4.38;;;20.50;60.90;;;;;;4809114;29;88014;-88
2023/04/25 09:59:52;;;;;;;11.88;3.85;;;20.50;60.80;;;;;;4811096;29;88725;-91
2023/04/25 10:02:21;;;;;;;12.27;4.55;;;20.50;61.30;;;;;;4828780;29;85830;-91
2023/04/25 10:04:48;;;;;;;;;;;20.50;61.40;;;;;;4828413;29;86469;-88
2023/04/25 10:07:14;;;;;;;14.98;4.18;;;20.50;61.70;;;;;;4824337;29;89342;-89
2023/04/25 10:09:41;;;;;;;10.05;3.88;;;20.60;62.00;;;;;;4827593;29;88785;-88
2023/04/25 10:12:08;;;;;;;10.77;3.83;;;20.60;62.20;;;;;;4820574;29;86480;-92
2023/04/25 10:14:36;;;;;;;8.93;3.53;;;20.60;62.40;;;;;;4828917;29;86008;-91
2023/04/25 10:17:02;;;;;;;9.53;4.13;;;20.50;62.20;;;;;;4896696;23;90275;-90
2023/04/25 10:19:29;;;;;;;12.13;4.13;;;20.60;62.60;;;;;;4960441;28;88631;-89
2023/04/25 10:22:08;;;;;;;11.80;3.80;;;20.60;62.80;;;;;;4961451;28;85951;-89
2023/04/25 10:24:36;;;;;;;8.82;3.83;;;20.50;62.90;;;;;;4959164;28;86333;-90
2023/04/25 10:27:02;;;;;;;10.02;3.38;;;20.50;63.00;;;;;;4945773;28;86626;-92
2023/04/25 10:29:28;;;;;;;11.73;4.65;;;20.50;63.20;;;;;;4943514;28;88779;-90
2023/04/25 10:31:54;;;;;;;10.27;3.22;;;20.40;62.70;;;;;;4959768;28;86079;-89
2023/04/25 10:34:49;;;;;;;14.00;4.43;;;20.40;63.30;;;;;;4960027;28;86390;-90
2023/04/25 10:37:15;;;;;;;9.80;3.70;;;20.30;63.40;;;;;;4920959;28;94384;-90
2023/04/25 10:39:41;;;;;;;11.55;3.95;;;20.20;63.70;;;;;;4904680;28;88402;-91
2023/04/25 10:42:08;;;;;;;11.60;3.40;;;20.20;63.20;;;;;;4915798;28;86097;-88
2023/04/25 10:44:34;;;;;;;8.05;3.42;;;20.40;61.90;;;;;;4898265;28;85815;-91
2023/04/25 10:47:01;;;;;;;12.70;3.50;;;20.30;62.80;;;;;;4905912;28;89457;-91
2023/04/25 10:49:35;;;;;;;9.02;3.67;;;20.20;62.80;;;;;;4902446;28;89902;-91
2023/04/25 10:52:13;;;;;;;7.15;3.28;;;20.20;62.80;;;;;;4897211;28;87888;-91
2023/04/25 10:55:04;;;;;;;7.77;3.30;;;20.20;62.90;;;;;;4896329;28;86050;-90
2023/04/25 10:57:46;;;;;;;7.93;4.00;;;20.20;62.80;;;;;;4896691;28;89936;-91
2023/04/25 11:00:16;;;;;;;11.63;4.07;;;20.20;62.70;;;;;;4912121;28;88323;-91
2023/04/25 11:02:52;;;;;;;8.70;3.33;;;20.20;62.60;;;;;;4906022;28;85785;-91
2023/04/25 11:05:45;;;;;;;10.63;4.03;;;20.20;62.80;;;;;;4915059;28;86182;-92
2023/04/25 11:08:17;;;;;;;10.13;3.67;;;20.20;62.60;;;;;;4858373;29;88983;-90
2023/04/25 11:10:44;;;;;;;8.73;3.15;;;20.20;62.40;;;;;;4858137;29;89776;-90
2023/04/25 11:13:09;;;;;;;9.95;3.15;;;20.20;62.50;;;;;;4851071;28;85762;-90
2023/04/25 11:15:35;;;;;;;7.30;3.20;;;20.20;62.50;;;;;;4890740;28;86671;-93
2023/04/25 11:18:03;;;;;;;8.40;3.47;;;20.20;62.30;;;;;;4894912;28;89160;-91
2023/04/25 11:20:29;;;;;;;6.97;3.15;;;20.20;62.40;;;;;;4879720;28;88170;-91
2023/04/25 11:23:13;;;;;;;9.20;3.38;;;20.20;62.30;;;;;;4879996;28;85971;-92
2023/04/25 11:25:38;;;;;;;9.68;3.72;;;20.20;62.20;;;;;;4880889;28;85943;-91
2023/04/25 11:28:04;;;;;;;7.85;3.60;;;20.30;62.20;;;;;;4898608;28;87310;-91
2023/04/25 11:30:30;;;;;;;9.23;3.60;;;20.30;62.10;;;;;;4881204;28;88326;-92
2023/04/25 11:32:56;;;;;;;7.90;3.45;;;20.30;62.10;;;;;;4896852;28;85893;-90
2023/04/25 11:38:53;;;;;;;6.40;3.30;;;20.30;62.10;;;;;;4897188;28;86225;-91
2023/04/25 11:41:21;;;;;;;7.22;3.65;;;20.30;62.00;;;;;;4894161;28;88818;-91
2023/04/25 11:43:48;;;;;;;7.15;3.15;;;20.40;62.20;;;;;;4889061;28;86109;-91
2023/04/25 11:46:14;;;;;;;10.20;3.63;;;20.30;62.10;;;;;;4953194;28;85861;-92
2023/04/25 11:48:41;;;;;;;6.38;2.92;;;20.30;62.00;;;;;;4955658;28;89441;-93
2023/04/25 11:51:07;;;;;;;10.57;3.53;;;20.30;61.10;;;;;;4954139;28;90054;-91
2023/04/25 11:53:33;;;;;;;7.70;3.58;;;20.30;61.30;;;;;;4952348;28;86125;-92
2023/04/25 11:56:20;;;;;;;7.97;3.22;;;20.30;61.40;;;;;;4950560;28;85691;-92
2023/04/25 11:59:03;;;;;;;8.85;4.05;;;20.30;60.80;;;;;;4926635;28;89504;-89
2023/04/25 12:01:36;;;;;;;7.78;3.00;;;20.30;61.20;;;;;;4918142;28;90257;-94
2023/04/25 12:04:38;;;;;;;5.60;2.85;;;20.30;61.30;;;;;;4927470;28;90901;-91
2023/04/25 12:07:03;;;;;;;6.45;2.40;;;20.30;61.30;;;;;;4866992;29;87125;-91
2023/04/25 12:09:33;;;;;;;7.75;2.78;;;20.30;61.10;;;;;;4856028;29;90669;-90
2023/04/25 12:12:03;;;;;;;7.32;2.97;;;20.30;61.10;;;;;;4849355;29;91350;-89
2023/04/25 12:14:32;;;;;;;7.13;2.80;;;20.30;61.00;;;;;;4849492;29;91179;-89
2023/04/25 12:17:00;;;;;;;8.40;3.10;;;20.30;59.50;;;;;;4864917;28;87001;-91
2023/04/25 12:19:31;;;;;;;10.43;3.42;;;20.30;60.20;;;;;;4850732;29;90144;-90
2023/04/25 12:21:57;;;;;;;6.20;3.05;;;20.20;59.90;;;;;;4842436;29;94744;-90
2023/04/25 12:24:25;;;;;;;8.10;3.33;;;20.20;60.00;;;;;;4843496;29;90440;-91
2023/04/25 12:27:07;;;;;;;7.45;3.58;;;20.10;60.50;;;;;;4850093;29;87178;-91
2023/04/25 12:29:34;;;;;;;8.45;3.22;;;20.10;61.20;;;;;;4858523;28;89703;-92
2023/04/25 12:32:01;;;;;;;6.22;2.42;;;20.10;60.50;;;;;;4875948;28;89993;-91
2023/04/25 12:34:32;;;;;;;6.25;2.80;;;20.10;60.50;;;;;;4890959;28;89457;-93
2023/04/25 12:36:57;;;;;;;8.35;3.10;;;20.10;59.60;;;;;;4871530;28;88545;-89
2023/04/25 12:39:24;;;;;;;6.75;2.90;;;20.10;59.70;;;;;;4915934;28;89259;-91
2023/04/25 12:41:54;;;;;;;7.10;3.40;;;20.10;60.90;;;;;;4933111;28;91574;-90
2023/04/25 12:44:20;;;;;;;8.77;2.88;;;20.10;60.10;;;;;;4949535;28;90268;-91
2023/04/25 12:46:47;;;;;;;8.27;3.78;;;20.10;60.70;;;;;;4944374;28;86966;-89
2023/04/25 12:49:12;;;;;;;6.72;3.00;;;20.10;61.00;;;;;;4935043;28;89357;-91
2023/04/25 12:51:44;;;;;;;5.00;2.33;;;20.10;61.10;;;;;;4935584;28;90110;-92
2023/04/25 12:54:10;;;;;;;8.90;2.95;;;20.10;60.70;;;;;;4935975;28;91786;-93
2023/04/25 12:56:37;;;;;;;8.82;3.50;;;20.10;60.90;;;;;;4934862;28;87088;-91
2023/04/25 12:59:03;;;;;;;6.07;2.63;;;20.10;57.80;;;;;;4939071;28;88738;-91